Weather observations for the past three days for
Devils Lake, Devils Lake Municipal Airport
Imperial (Metric)
Date Time (cdt) Wind (mph) Vis. (mi.) Weather Sky Cond. Temperature (ºF) Relative Humidity Wind Chill (°F) Heat Index (°F) Pressure Precipitation (in)
Air Dwpt 6 hour altimeter (in) sea level (mb) 1 hr 3 hr 6 hr
Max. Min.
04 19:56 NW 20 10.00 Overcast FEW060 OVC080 42.1 19.9 41% 34 29.73 1008.7
04 18:56 NW 21 10.00 Overcast and Breezy SCT060 OVC080 42.1 21 46 42.1 43% 34 29.73 1008.4
04 17:56 NW 17 G 28 10.00 Overcast BKN060 OVC075 44.1 23 43% 37 29.72 1008.0
04 16:56 NW 22 G 28 10.00 Overcast and Breezy OVC070 44.1 19.9 38% 36 29.7 1007.2
04 15:56 N 20 G 26 10.00 Overcast OVC065 44.1 21 40% 37 29.7 1007.2
04 14:56 N 25 G 37 10.00 Overcast and Breezy OVC060 44.1 21 40% 35 29.68 1006.6
04 13:56 N 25 G 36 10.00 Overcast and Breezy SCT050 OVC060 43 21.9 43% 34 29.67 1006.2
04 12:56 NW 26 G 41 10.00 Overcast and Windy OVC050 44.1 21 44.1 37 40% 35 29.65 1005.5
04 11:56 NW 22 G 29 10.00 Light Rain and Breezy BKN041 BKN047 OVC055 41 26.1 55% 32 29.65 1005.6
04 10:56 NW 22 G 28 10.00 Overcast and Breezy BKN042 OVC050 41 25 53% 32 29.64 1005.1
04 09:56 NW 28 G 36 10.00 Overcast and Windy OVC046 39.9 23 51% 29 29.63 1004.2
04 08:56 NW 23 10.00 Overcast and Breezy BKN029 OVC039 39 30 70% 29 29.62 1004.1
04 07:56 NW 22 G 29 10.00 Overcast and Breezy BKN025 OVC035 39 30.9 73% 29 29.6 1003.2
04 06:56 NW 21 10.00 A Few Clouds and Breezy FEW044 37 30 48 37 76% 27 29.58 1002.5 0.01
04 05:56 NW 21 10.00 Partly Cloudy and Breezy SCT042 39 30 70% 30 29.56 1001.7
04 04:56 NW 21 G 26 10.00 Fair and Breezy CLR 39 30.9 73% 30 29.53 1000.6
04 03:56 NW 18 G 29 10.00 Fair CLR 39.9 32 73% 31 29.5 999.7 0.01 0.01
04 02:56 NW 28 10.00 Fair and Windy CLR 46 32 58% 38 29.45 997.9
04 01:56 NW 20 10.00 Overcast BKN100 OVC110 46.9 39 74% 40 29.45 997.9
04 00:56 NW 12 10.00 Light Rain FEW045 OVC060 46 41 71.1 46 83% 41 29.47 998.7
03 23:56 N 26 G 33 10.00 Mostly Cloudy and Windy BKN100 48.9 37.9 66% 42 29.47 998.7
03 22:56 N 32 G 40 10.00 Mostly Cloudy and Windy FEW080 BKN110 52 39 61% 29.44 997.7
03 21:56 W 22 G 26 10.00 Partly Cloudy and Breezy FEW080 SCT100 SCT120 66 37.9 36% 29.37 995.0
03 20:56 W 14 10.00 Mostly Cloudy BKN110 64.9 35.1 33% 29.37 995.2
03 19:56 W 14 10.00 Mostly Cloudy BKN110 66 37 34% 29.41 996.6
03 18:56 W 17 G 25 10.00 A Few Clouds FEW110 71.1 33.1 73 66.9 25% 29.46 998.2
03 17:56 W 22 G 30 10.00 Fair and Breezy CLR 72 34 25% 29.49 999.4
03 16:56 W 26 G 35 10.00 Fair and Windy CLR 72 30.9 22% 29.52 1000.5
03 15:56 W 25 G 36 10.00 Fair and Breezy CLR 72 30 21% 29.57 1002.1
03 14:56 W 26 G 33 10.00 Fair and Windy CLR 72 30.9 22% 29.62 1003.6
03 13:56 W 22 10.00 Fair and Breezy CLR 70 33.1 26% 29.66 1005.1
03 12:56 W 18 G 26 10.00 Fair CLR 66 33.1 66.9 36 29% 29.72 1007.4
03 11:56 W 15 10.00 Fair CLR 63 33.1 33% 29.77 1009.1
03 10:56 W 14 10.00 Fair CLR 59 32 36% 29.81 1010.4
03 09:56 W 10 10.00 Fair CLR 54 35.1 49% 29.83 1011.1
03 08:56 SW 9 10.00 Fair CLR 48.9 34 56% 45 29.85 1011.9
03 07:56 W 8 10.00 Fair CLR 44.1 35.1 71% 40 29.86 1012.2
03 06:56 W 6 10.00 Fair CLR 36 32 42.1 33.1 86% 32 29.86 1012.4
03 05:56 W 3 10.00 Fair CLR 36 33.1 89% 29.86 1012.3
03 04:56 W 8 10.00 Fair CLR 35.1 30.9 85% 29 29.87 1012.5
03 03:56 W 8 10.00 Fair CLR 37 33.1 86% 32 29.87 1012.3
03 02:56 NW 9 10.00 Fair CLR 39.9 35.1 83% 34 29.87 1012.3
03 01:56 N 8 10.00 Fair CLR 39.9 35.1 83% 35 29.86 1012.3
03 00:56 NW 9 10.00 Fair CLR 42.1 36 66 41 79% 37 29.87 1012.5
02 23:56 N 10 10.00 Fair CLR 44.1 36 73% 39 29.85 1012.1
02 22:56 N 7 10.00 Fair CLR 46 36 68% 43 29.84 1011.8
02 21:56 NE 10 10.00 Fair CLR 53.1 37 55% 29.84 1011.2
02 20:56 N 16 10.00 Fair CLR 57 36 45% 29.81 1010.3
02 19:56 N 21 G 25 10.00 Fair and Breezy CLR 63 37.9 40% 29.78 1009.1
02 18:56 N 18 10.00 Fair CLR 66 36 71.1 60.1 33% 29.76 1008.4
02 17:56 N 21 10.00 Fair and Breezy CLR 69.1 35.1 29% 29.72 1007.1
02 16:56 N 21 10.00 A Few Clouds and Breezy FEW080 71.1 36 28% 29.71 1006.6
02 15:56 NW 18 G 28 10.00 Fair CLR 70 32 25% 29.71 1006.7
02 14:56 NW 10 10.00 Fair CLR 69.1 34 27% 29.73 1007.5
02 13:56 W 14 10.00 Fair CLR 64.9 34 32% 29.76 1008.7
02 12:56 S 8 10.00 Mostly Cloudy FEW065 BKN100 60.1 34 60.1 45 38% 29.79 1009.9
02 11:56 S 9 10.00 Overcast BKN080 OVC100 55.9 33.1 42% 29.81 1010.6
02 10:56 W 14 10.00 Overcast OVC080 55.9 32 40% 29.84 1011.6
02 09:56 SW 12 10.00 Mostly Cloudy BKN095 54 30.9 42% 29.84 1011.6
02 08:56 SW 15 10.00 Overcast BKN090 OVC100 52 30.9 45% 29.86 1012.3
02 07:56 SW 14 10.00 Fair CLR 48 32 54% 43 29.89 1013.2
02 06:56 W 16 10.00 Fair CLR 45 30.9 45 41 58% 38 29.89 1013.5
02 05:56 SW 9 10.00 Fair CLR 42.1 30.9 65% 37 29.91 1014.1
02 04:56 W 10 10.00 Fair CLR 42.1 32 68% 37 29.93 1014.9
02 03:56 SW 8 10.00 Fair CLR 44.1 32 63% 40 29.93 1014.9
02 02:56 SW 10 10.00 Fair CLR 44.1 32 63% 39 29.95 1015.5
02 01:56 S 10 10.00 Fair CLR 45 30 56% 40 29.98 1016.6
02 00:56 SE 7 10.00 Fair CLR 43 30.9 55.9 43 63% 39 30 1017.4
01 23:56 S 8 10.00 Fair CLR 44.1 30 58% 40 30.02 1017.9
01 22:56 S 10 10.00 Fair CLR 46 30 54% 42 30.03 1018.3
01 21:56 S 12 10.00 Fair CLR 46.9 30 52% 42 30.03 1018.4
01 20:56 SE 8 10.00 Fair CLR 48 33.1 56% 45 30.03 1018.4
Date Time (cdt) Wind (mph) Vis. (mi.) Weather Sky Cond. Air Dwpt Max. Min. Relative Humidity Wind Chill (°F) Heat Index (°F) altimeter (in) sea level (mb) 1 hr 3 hr 6 hr
6 hour
Temperature (ºF) Pressure Precipitation (in)